sensor_id;sensor_type;location;lat;lon;timestamp;pressure;altitude;pressure_sealevel;temperature;humidity
69318;BME280;56457;52.190;4.440;2023-07-13T00:00:02;101408.31;;;18.54;100.00
69318;BME280;56457;52.190;4.440;2023-07-13T00:01:05;101407.25;;;18.60;100.00
69318;BME280;56457;52.190;4.440;2023-07-13T00:02:06;101403.19;;;18.48;100.00
69318;BME280;56457;52.190;4.440;2023-07-13T00:03:07;101397.88;;;18.48;100.00
69318;BME280;56457;52.190;4.440;2023-07-13T00:04:07;101411.03;;;18.53;100.00
69318;BME280;56457;52.190;4.440;2023-07-13T00:05:08;101409.19;;;18.55;100.00
69318;BME280;56457;52.190;4.440;2023-07-13T00:06:08;101417.03;;;18.60;100.00
69318;BME280;56457;52.190;4.440;2023-07-13T00:07:09;101414.38;;;18.60;100.00
69318;BME280;56457;52.190;4.440;2023-07-13T00:08:09;101413.69;;;18.53;100.00
69318;BME280;56457;52.190;4.440;2023-07-13T00:09:14;101405.59;;;18.56;100.00
69318;BME280;56457;52.190;4.440;2023-07-13T00:10:15;101401.22;;;18.55;100.00
69318;BME280;56457;52.190;4.440;2023-07-13T00:11:16;101405.78;;;18.50;100.00
69318;BME280;56457;52.190;4.440;2023-07-13T00:12:24;101412.16;;;18.46;100.00
69318;BME280;56457;52.190;4.440;2023-07-13T00:13:24;101404.06;;;18.49;100.00
69318;BME280;56457;52.190;4.440;2023-07-13T00:14:25;101412.88;;;18.51;100.00
69318;BME280;56457;52.190;4.440;2023-07-13T00:15:26;101412.81;;;18.52;100.00
69318;BME280;56457;52.190;4.440;2023-07-13T00:16:26;101408.38;;;18.53;100.00
69318;BME280;56457;52.190;4.440;2023-07-13T00:17:27;101416.22;;;18.58;100.00
69318;BME280;56457;52.190;4.440;2023-07-13T00:18:27;101410.25;;;18.49;100.00
69318;BME280;56457;52.190;4.440;2023-07-13T00:19:30;101416.44;;;18.50;100.00
69318;BME280;56457;52.190;4.440;2023-07-13T00:20:30;101418.28;;;18.48;100.00
69318;BME280;56457;52.190;4.440;2023-07-13T00:21:30;101410.22;;;18.51;100.00
69318;BME280;56457;52.190;4.440;2023-07-13T00:22:31;101410.16;;;18.52;100.00
69318;BME280;56457;52.190;4.440;2023-07-13T00:23:34;101411.84;;;18.55;100.00
69318;BME280;56457;52.190;4.440;2023-07-13T00:24:35;101418.19;;;18.51;100.00
69318;BME280;56457;52.190;4.440;2023-07-13T00:25:35;101418.00;;;18.57;100.00
69318;BME280;56457;52.190;4.440;2023-07-13T00:26:36;101422.38;;;18.58;100.00
69318;BME280;56457;52.190;4.440;2023-07-13T00:27:36;101430.31;;;18.60;100.00
69318;BME280;56457;52.190;4.440;2023-07-13T00:28:37;101417.03;;;18.60;100.00
69318;BME280;56457;52.190;4.440;2023-07-13T00:29:37;101418.94;;;18.54;100.00
69318;BME280;56457;52.190;4.440;2023-07-13T00:30:37;101425.25;;;18.52;100.00
69318;BME280;56457;52.190;4.440;2023-07-13T00:31:38;101426.09;;;18.52;100.00
69318;BME280;56457;52.190;4.440;2023-07-13T00:32:38;101422.53;;;18.53;100.00
69318;BME280;56457;52.190;4.440;2023-07-13T00:33:38;101425.25;;;18.52;100.00
69318;BME280;56457;52.190;4.440;2023-07-13T00:34:40;101417.22;;;18.53;100.00
69318;BME280;56457;52.190;4.440;2023-07-13T00:35:40;101415.28;;;18.59;100.00
69318;BME280;56457;52.190;4.440;2023-07-13T00:36:43;101426.59;;;18.65;100.00
69318;BME280;56457;52.190;4.440;2023-07-13T00:37:44;101422.28;;;18.61;100.00
69318;BME280;56457;52.190;4.440;2023-07-13T00:38:44;101424.84;;;18.64;100.00
69318;BME280;56457;52.190;4.440;2023-07-13T00:39:44;101428.41;;;18.63;100.00
69318;BME280;56457;52.190;4.440;2023-07-13T00:40:45;101427.47;;;18.66;100.00
69318;BME280;56457;52.190;4.440;2023-07-13T00:41:45;101425.59;;;18.69;100.00
69318;BME280;56457;52.190;4.440;2023-07-13T00:42:45;101423.72;;;18.73;100.00
69318;BME280;56457;52.190;4.440;2023-07-13T00:43:45;101431.63;;;18.74;100.00
69318;BME280;56457;52.190;4.440;2023-07-13T00:46:12;101429.16;;;18.68;100.00
69318;BME280;56457;52.190;4.440;2023-07-13T00:47:13;101426.50;;;18.68;100.00
69318;BME280;56457;52.190;4.440;2023-07-13T00:48:17;101425.91;;;18.59;100.00
69318;BME280;56457;52.190;4.440;2023-07-13T00:49:20;101425.00;;;18.60;100.00
69318;BME280;56457;52.190;4.440;2023-07-13T00:50:21;101426.78;;;18.59;100.00
69318;BME280;56457;52.190;4.440;2023-07-13T00:51:24;101418.28;;;18.48;100.00
69318;BME280;56457;52.190;4.440;2023-07-13T00:52:25;101419.09;;;18.50;100.00
69318;BME280;56457;52.190;4.440;2023-07-13T00:53:27;101417.47;;;18.44;100.00
69318;BME280;56457;52.190;4.440;2023-07-13T00:54:29;101424.66;;;18.42;100.00
69318;BME280;56457;52.190;4.440;2023-07-13T00:55:30;101416.78;;;18.39;100.00
69318;BME280;56457;52.190;4.440;2023-07-13T00:56:31;101420.31;;;18.40;100.00
69318;BME280;56457;52.190;4.440;2023-07-13T00:57:32;101414.88;;;18.43;100.00
69318;BME280;56457;52.190;4.440;2023-07-13T00:58:33;101425.44;;;18.46;100.00
69318;BME280;56457;52.190;4.440;2023-07-13T00:59:34;101422.09;;;18.39;100.00
69318;BME280;56457;52.190;4.440;2023-07-13T01:00:35;101419.34;;;18.42;100.00
69318;BME280;56457;52.190;4.440;2023-07-13T01:01:36;101421.00;;;18.46;100.00
69318;BME280;56457;52.190;4.440;2023-07-13T01:02:40;101416.47;;;18.48;100.00
69318;BME280;56457;52.190;4.440;2023-07-13T01:03:43;101423.84;;;18.40;100.00
69318;BME280;56457;52.190;4.440;2023-07-13T01:04:43;101420.13;;;18.44;100.00
69318;BME280;56457;52.190;4.440;2023-07-13T01:05:44;101430.06;;;18.39;100.00
69318;BME280;56457;52.190;4.440;2023-07-13T01:06:46;101422.03;;;18.41;100.00
69318;BME280;56457;52.190;4.440;2023-07-13T01:07:47;101430.81;;;18.43;100.00
69318;BME280;56457;52.190;4.440;2023-07-13T01:08:49;101429.28;;;18.36;100.00
69318;BME280;56457;52.190;4.440;2023-07-13T01:09:49;101425.63;;;18.40;100.00
69318;BME280;56457;52.190;4.440;2023-07-13T01:10:50;101427.53;;;18.35;100.00
69318;BME280;56457;52.190;4.440;2023-07-13T01:11:51;101423.88;;;18.39;100.00
69318;BME280;56457;52.190;4.440;2023-07-13T01:12:51;101421.19;;;18.40;100.00
69318;BME280;56457;52.190;4.440;2023-07-13T01:13:52;101429.09;;;18.42;100.00
69318;BME280;56457;52.190;4.440;2023-07-13T01:14:59;101425.75;;;18.35;100.00
69318;BME280;56457;52.190;4.440;2023-07-13T01:16:02;101422.38;;;18.30;100.00
69318;BME280;56457;52.190;4.440;2023-07-13T01:17:04;101418.91;;;18.28;100.00
69318;BME280;56457;52.190;4.440;2023-07-13T01:18:05;101423.28;;;18.29;100.00
69318;BME280;56457;52.190;4.440;2023-07-13T01:19:13;101421.69;;;18.23;100.00
69318;BME280;56457;52.190;4.440;2023-07-13T01:20:16;101430.63;;;18.21;100.00
69318;BME280;56457;52.190;4.440;2023-07-13T01:21:17;101425.16;;;18.25;100.00
69318;BME280;56457;52.190;4.440;2023-07-13T01:22:19;101421.69;;;18.23;100.00
69318;BME280;56457;52.190;4.440;2023-07-13T01:23:19;101421.75;;;18.22;100.00
69318;BME280;56457;52.190;4.440;2023-07-13T01:24:19;101420.00;;;18.21;100.00
69318;BME280;56457;52.190;4.440;2023-07-13T01:25:20;101417.25;;;18.24;100.00
69318;BME280;56457;52.190;4.440;2023-07-13T01:26:21;101416.38;;;18.23;100.00
69318;BME280;56457;52.190;4.440;2023-07-13T01:27:22;101425.34;;;18.19;100.00
69318;BME280;56457;52.190;4.440;2023-07-13T01:28:26;101426.25;;;18.18;100.00
69318;BME280;56457;52.190;4.440;2023-07-13T01:29:29;101417.56;;;18.13;100.00
69318;BME280;56457;52.190;4.440;2023-07-13T01:30:30;101423.72;;;18.15;100.00
69318;BME280;56457;52.190;4.440;2023-07-13T01:31:31;101424.53;;;18.17;100.00
69318;BME280;56457;52.190;4.440;2023-07-13T01:32:32;101428.84;;;18.21;100.00
69318;BME280;56457;52.190;4.440;2023-07-13T01:33:34;101432.44;;;18.19;100.00
69318;BME280;56457;52.190;4.440;2023-07-13T01:34:34;101432.78;;;18.08;100.00
69318;BME280;56457;52.190;4.440;2023-07-13T01:35:35;101431.84;;;18.09;100.00
69318;BME280;56457;52.190;4.440;2023-07-13T01:36:35;101443.47;;;18.05;100.00
69318;BME280;56457;52.190;4.440;2023-07-13T01:37:36;101447.16;;;17.99;100.00
69318;BME280;56457;52.190;4.440;2023-07-13T01:38:36;101441.78;;;18.02;100.00
69318;BME280;56457;52.190;4.440;2023-07-13T01:39:36;101442.72;;;18.01;100.00
69318;BME280;56457;52.190;4.440;2023-07-13T01:40:37;101449.00;;;17.97;100.00
69318;BME280;56457;52.190;4.440;2023-07-13T01:41:38;101445.38;;;18.00;100.00
69318;BME280;56457;52.190;4.440;2023-07-13T01:42:38;101441.00;;;17.99;100.00
69318;BME280;56457;52.190;4.440;2023-07-13T01:43:39;101441.06;;;17.97;100.00
69318;BME280;56457;52.190;4.440;2023-07-13T01:44:39;101441.88;;;17.99;100.00
69318;BME280;56457;52.190;4.440;2023-07-13T01:45:39;101437.53;;;17.97;100.00
69318;BME280;56457;52.190;4.440;2023-07-13T01:46:40;101444.47;;;18.01;100.00
69318;BME280;56457;52.190;4.440;2023-07-13T01:47:40;101434.75;;;18.00;100.00
69318;BME280;56457;52.190;4.440;2023-07-13T01:48:40;101439.25;;;17.98;100.00
69318;BME280;56457;52.190;4.440;2023-07-13T01:49:41;101443.78;;;17.94;100.00
69318;BME280;56457;52.190;4.440;2023-07-13T01:50:41;101435.69;;;17.99;100.00
69318;BME280;56457;52.190;4.440;2023-07-13T01:51:41;101442.78;;;17.98;100.00
69318;BME280;56457;52.190;4.440;2023-07-13T01:52:42;101443.69;;;17.97;100.00
69318;BME280;56457;52.190;4.440;2023-07-13T01:53:42;101444.63;;;17.95;100.00
69318;BME280;56457;52.190;4.440;2023-07-13T01:54:42;101451.72;;;17.96;100.00
69318;BME280;56457;52.190;4.440;2023-07-13T01:55:43;101453.41;;;17.98;100.00
69318;BME280;56457;52.190;4.440;2023-07-13T01:56:43;101445.50;;;17.97;100.00
69318;BME280;56457;52.190;4.440;2023-07-13T01:57:43;101451.63;;;17.99;100.00
69318;BME280;56457;52.190;4.440;2023-07-13T01:58:44;101443.75;;;17.96;100.00
69318;BME280;56457;52.190;4.440;2023-07-13T01:59:44;101440.06;;;18.00;100.00
69318;BME280;56457;52.190;4.440;2023-07-13T02:00:47;101448.03;;;18.00;100.00
69318;BME280;56457;52.190;4.440;2023-07-13T02:01:48;101448.78;;;18.05;100.00
69318;BME280;56457;52.190;4.440;2023-07-13T02:02:48;101445.31;;;18.03;100.00
69318;BME280;56457;52.190;4.440;2023-07-13T02:03:48;101440.88;;;18.03;100.00
69318;BME280;56457;52.190;4.440;2023-07-13T02:04:48;101450.63;;;18.03;100.00
69318;BME280;56457;52.190;4.440;2023-07-13T02:05:49;101453.28;;;18.03;100.00
69318;BME280;56457;52.190;4.440;2023-07-13T02:06:49;101453.34;;;18.00;100.00
69318;BME280;56457;52.190;4.440;2023-07-13T02:07:49;101448.88;;;18.02;100.00
69318;BME280;56457;52.190;4.440;2023-07-13T02:08:50;101453.34;;;18.00;100.00
69318;BME280;56457;52.190;4.440;2023-07-13T02:09:50;101446.41;;;17.96;100.00
69318;BME280;56457;52.190;4.440;2023-07-13T02:10:50;101454.53;;;17.90;100.00
69318;BME280;56457;52.190;4.440;2023-07-13T02:11:51;101463.22;;;17.95;100.00
69318;BME280;56457;52.190;4.440;2023-07-13T02:12:51;101462.41;;;17.93;100.00
69318;BME280;56457;52.190;4.440;2023-07-13T02:13:51;101455.41;;;17.90;100.00
69318;BME280;56457;52.190;4.440;2023-07-13T02:14:52;101457.38;;;17.84;100.00
69318;BME280;56457;52.190;4.440;2023-07-13T02:15:52;101460.78;;;17.89;100.00
69318;BME280;56457;52.190;4.440;2023-07-13T02:16:52;101459.88;;;17.88;100.00
69318;BME280;56457;52.190;4.440;2023-07-13T02:17:52;101457.19;;;17.90;100.00
69318;BME280;56457;52.190;4.440;2023-07-13T02:18:53;101452.59;;;17.96;100.00
69318;BME280;56457;52.190;4.440;2023-07-13T02:19:53;101464.25;;;17.91;100.00
69318;BME280;56457;52.190;4.440;2023-07-13T02:20:54;101464.16;;;17.94;100.00
69318;BME280;56457;52.190;4.440;2023-07-13T02:21:54;101461.47;;;17.95;100.00
69318;BME280;56457;52.190;4.440;2023-07-13T02:22:54;101465.22;;;17.87;100.00
69318;BME280;56457;52.190;4.440;2023-07-13T02:23:54;101467.06;;;17.85;100.00
69318;BME280;56457;52.190;4.440;2023-07-13T02:24:55;101470.75;;;17.79;100.00
69318;BME280;56457;52.190;4.440;2023-07-13T02:25:56;101460.28;;;17.74;100.00
69318;BME280;56457;52.190;4.440;2023-07-13T02:26:56;101465.53;;;17.76;100.00
69318;BME280;56457;52.190;4.440;2023-07-13T02:27:57;101467.13;;;17.82;100.00
69318;BME280;56457;52.190;4.440;2023-07-13T02:28:57;101463.78;;;17.75;100.00
69318;BME280;56457;52.190;4.440;2023-07-13T02:29:57;101468.97;;;17.80;100.00
69318;BME280;56457;52.190;4.440;2023-07-13T02:31:04;101466.22;;;17.84;100.00
69318;BME280;56457;52.190;4.440;2023-07-13T02:32:04;101467.13;;;17.83;100.00
69318;BME280;56457;52.190;4.440;2023-07-13T02:33:04;101461.75;;;17.85;100.00
69318;BME280;56457;52.190;4.440;2023-07-13T02:34:05;101469.72;;;17.85;100.00
69318;BME280;56457;52.190;4.440;2023-07-13T02:35:05;101462.81;;;17.79;100.00
69318;BME280;56457;52.190;4.440;2023-07-13T02:36:06;101456.34;;;17.88;100.00
69318;BME280;56457;52.190;4.440;2023-07-13T02:37:06;101464.31;;;17.88;100.00
69318;BME280;56457;52.190;4.440;2023-07-13T02:38:07;101459.00;;;17.89;100.00
69318;BME280;56457;52.190;4.440;2023-07-13T02:39:08;101460.72;;;17.90;100.00
69318;BME280;56457;52.190;4.440;2023-07-13T02:40:09;101467.81;;;17.90;100.00
69318;BME280;56457;52.190;4.440;2023-07-13T02:41:09;101459.94;;;17.87;100.00
69318;BME280;56457;52.190;4.440;2023-07-13T02:42:09;101464.41;;;17.85;100.00
69318;BME280;56457;52.190;4.440;2023-07-13T02:43:10;101465.22;;;17.87;100.00
69318;BME280;56457;52.190;4.440;2023-07-13T02:44:12;101464.41;;;17.85;100.00
69318;BME280;56457;52.190;4.440;2023-07-13T02:45:12;101465.16;;;17.90;100.00
69318;BME280;56457;52.190;4.440;2023-07-13T02:46:13;101463.28;;;17.93;100.00
69318;BME280;56457;52.190;4.440;2023-07-13T02:47:14;101464.94;;;17.97;100.00
69318;BME280;56457;52.190;4.440;2023-07-13T02:48:14;101468.41;;;17.99;100.00
69318;BME280;56457;52.190;4.440;2023-07-13T02:49:14;101462.84;;;18.09;100.00
69318;BME280;56457;52.190;4.440;2023-07-13T02:50:15;101460.94;;;18.14;100.00
69318;BME280;56457;52.190;4.440;2023-07-13T02:51:15;101467.94;;;18.16;100.00
69318;BME280;56457;52.190;4.440;2023-07-13T02:52:15;101461.81;;;18.13;100.00
69318;BME280;56457;52.190;4.440;2023-07-13T02:53:16;101466.16;;;18.17;100.00
69318;BME280;56457;52.190;4.440;2023-07-13T02:54:16;101468.81;;;18.17;100.00
69318;BME280;56457;52.190;4.440;2023-07-13T02:55:16;101464.47;;;18.14;100.00
69318;BME280;56457;52.190;4.440;2023-07-13T02:56:17;101463.63;;;18.12;100.00
69318;BME280;56457;52.190;4.440;2023-07-13T02:57:18;101469.03;;;18.09;100.00
69318;BME280;56457;52.190;4.440;2023-07-13T02:58:18;101461.25;;;18.03;100.00
69318;BME280;56457;52.190;4.440;2023-07-13T02:59:18;101461.13;;;18.08;100.00
69318;BME280;56457;52.190;4.440;2023-07-13T03:00:19;101464.63;;;18.08;100.00
69318;BME280;56457;52.190;4.440;2023-07-13T03:01:19;101467.28;;;18.08;100.00
69318;BME280;56457;52.190;4.440;2023-07-13T03:02:20;101464.66;;;18.07;100.00
69318;BME280;56457;52.190;4.440;2023-07-13T03:03:21;101461.13;;;18.06;100.00
69318;BME280;56457;52.190;4.440;2023-07-13T03:04:21;101470.81;;;18.09;100.00
69318;BME280;56457;52.190;4.440;2023-07-13T03:05:21;101457.50;;;18.10;100.00
69318;BME280;56457;52.190;4.440;2023-07-13T03:06:22;101467.28;;;18.08;100.00
69318;BME280;56457;52.190;4.440;2023-07-13T03:07:22;101462.88;;;18.07;100.00
69318;BME280;56457;52.190;4.440;2023-07-13T03:08:23;101467.38;;;18.05;100.00
69318;BME280;56457;52.190;4.440;2023-07-13T03:09:26;101476.25;;;18.04;100.00
69318;BME280;56457;52.190;4.440;2023-07-13T03:10:26;101470.88;;;18.06;100.00
69318;BME280;56457;52.190;4.440;2023-07-13T03:11:27;101468.16;;;18.09;100.00
69318;BME280;56457;52.190;4.440;2023-07-13T03:12:27;101477.06;;;18.08;100.00
69318;BME280;56457;52.190;4.440;2023-07-13T03:13:27;101477.91;;;18.08;100.00
69318;BME280;56457;52.190;4.440;2023-07-13T03:14:28;101481.47;;;18.07;100.00
69318;BME280;56457;52.190;4.440;2023-07-13T03:15:28;101487.66;;;18.08;100.00
69318;BME280;56457;52.190;4.440;2023-07-13T03:16:28;101479.81;;;18.03;100.00
69318;BME280;56457;52.190;4.440;2023-07-13T03:17:28;101486.06;;;18.00;100.00
69318;BME280;56457;52.190;4.440;2023-07-13T03:18:29;101484.50;;;17.93;100.00
69318;BME280;56457;52.190;4.440;2023-07-13T03:19:29;101488.78;;;17.99;100.00
69318;BME280;56457;52.190;4.440;2023-07-13T03:20:32;101489.66;;;17.99;100.00
69318;BME280;56457;52.190;4.440;2023-07-13T03:21:32;101486.19;;;17.97;100.00
69318;BME280;56457;52.190;4.440;2023-07-13T03:22:32;101483.47;;;17.99;100.00
69318;BME280;56457;52.190;4.440;2023-07-13T03:23:32;101487.03;;;17.98;100.00
69318;BME280;56457;52.190;4.440;2023-07-13T03:24:33;101476.31;;;18.02;100.00
69318;BME280;56457;52.190;4.440;2023-07-13T03:25:34;101475.28;;;18.07;100.00
69318;BME280;56457;52.190;4.440;2023-07-13T03:26:34;101481.56;;;18.04;100.00
69318;BME280;56457;52.190;4.440;2023-07-13T03:27:35;101480.88;;;17.97;100.00
69318;BME280;56457;52.190;4.440;2023-07-13T03:28:35;101477.59;;;17.88;100.00
69318;BME280;56457;52.190;4.440;2023-07-13T03:29:36;101483.66;;;17.93;100.00
69318;BME280;56457;52.190;4.440;2023-07-13T03:30:36;101476.47;;;17.96;100.00
69318;BME280;56457;52.190;4.440;2023-07-13T03:31:36;101480.00;;;17.97;100.00
69318;BME280;56457;52.190;4.440;2023-07-13T03:32:37;101479.91;;;18.00;100.00
69318;BME280;56457;52.190;4.440;2023-07-13T03:33:37;101478.09;;;18.02;100.00
69318;BME280;56457;52.190;4.440;2023-07-13T03:34:37;101480.75;;;18.02;100.00
69318;BME280;56457;52.190;4.440;2023-07-13T03:35:40;101482.38;;;18.06;100.00
69318;BME280;56457;52.190;4.440;2023-07-13T03:36:40;101481.56;;;18.04;100.00
69318;BME280;56457;52.190;4.440;2023-07-13T03:37:40;101480.75;;;18.00;100.00
69318;BME280;56457;52.190;4.440;2023-07-13T03:38:42;101490.50;;;18.00;100.00
69318;BME280;56457;52.190;4.440;2023-07-13T03:39:42;101493.28;;;17.97;100.00
69318;BME280;56457;52.190;4.440;2023-07-13T03:40:42;101496.75;;;17.99;100.00
69318;BME280;56457;52.190;4.440;2023-07-13T03:41:43;101492.41;;;17.96;100.00
69318;BME280;56457;52.190;4.440;2023-07-13T03:42:43;101490.63;;;17.97;100.00
69318;BME280;56457;52.190;4.440;2023-07-13T03:43:43;101497.66;;;17.98;100.00
69318;BME280;56457;52.190;4.440;2023-07-13T03:44:44;101491.38;;;18.02;100.00
69318;BME280;56457;52.190;4.440;2023-07-13T03:45:50;101491.31;;;18.03;100.00
69318;BME280;56457;52.190;4.440;2023-07-13T03:46:51;101491.31;;;18.03;100.00
69318;BME280;56457;52.190;4.440;2023-07-13T03:47:51;101488.56;;;18.07;100.00
69318;BME280;56457;52.190;4.440;2023-07-13T03:48:51;101501.84;;;18.07;100.00
69318;BME280;56457;52.190;4.440;2023-07-13T03:49:51;101493.00;;;18.06;100.00
69318;BME280;56457;52.190;4.440;2023-07-13T03:50:53;101498.38;;;18.05;100.00
69318;BME280;56457;52.190;4.440;2023-07-13T03:51:54;101493.97;;;18.03;100.00
69318;BME280;56457;52.190;4.440;2023-07-13T03:52:54;101493.09;;;18.03;100.00
69318;BME280;56457;52.190;4.440;2023-07-13T03:53:56;101485.03;;;18.06;100.00
69318;BME280;56457;52.190;4.440;2023-07-13T03:54:56;101495.63;;;18.08;100.00
69318;BME280;56457;52.190;4.440;2023-07-13T03:55:57;101498.19;;;18.11;100.00
69318;BME280;56457;52.190;4.440;2023-07-13T03:56:57;101493.75;;;18.11;100.00
69318;BME280;56457;52.190;4.440;2023-07-13T03:57:58;101484.91;;;18.11;100.00
69318;BME280;56457;52.190;4.440;2023-07-13T03:58:59;101492.94;;;18.09;100.00
69318;BME280;56457;52.190;4.440;2023-07-13T04:00:00;101492.81;;;18.12;100.00
69318;BME280;56457;52.190;4.440;2023-07-13T04:01:00;101484.00;;;18.12;100.00
69318;BME280;56457;52.190;4.440;2023-07-13T04:02:01;101488.53;;;18.08;100.00
69318;BME280;56457;52.190;4.440;2023-07-13T04:03:01;101492.09;;;18.07;100.00
69318;BME280;56457;52.190;4.440;2023-07-13T04:04:01;101493.84;;;18.08;100.00
69318;BME280;56457;52.190;4.440;2023-07-13T04:05:02;101496.44;;;18.10;100.00
69318;BME280;56457;52.190;4.440;2023-07-13T04:06:03;101500.72;;;18.15;100.00
69318;BME280;56457;52.190;4.440;2023-07-13T04:07:04;101498.81;;;18.19;100.00
69318;BME280;56457;52.190;4.440;2023-07-13T04:08:05;101501.47;;;18.20;100.00
69318;BME280;56457;52.190;4.440;2023-07-13T04:09:05;101501.47;;;18.19;100.00
69318;BME280;56457;52.190;4.440;2023-07-13T04:10:05;101495.22;;;18.21;100.00
69318;BME280;56457;52.190;4.440;2023-07-13T04:11:06;101504.19;;;18.17;100.00
69318;BME280;56457;52.190;4.440;2023-07-13T04:12:06;101505.00;;;18.19;100.00
69318;BME280;56457;52.190;4.440;2023-07-13T04:13:07;101499.56;;;18.24;100.00
69318;BME280;56457;52.190;4.440;2023-07-13T04:14:07;101500.50;;;18.23;100.00
69318;BME280;56457;52.190;4.440;2023-07-13T04:15:07;101502.09;;;18.28;100.00
69318;BME280;56457;52.190;4.440;2023-07-13T04:16:08;101502.16;;;18.27;100.00
69318;BME280;56457;52.190;4.440;2023-07-13T04:17:08;101498.69;;;18.23;100.00
69318;BME280;56457;52.190;4.440;2023-07-13T04:18:08;101500.41;;;18.26;100.00
69318;BME280;56457;52.190;4.440;2023-07-13T04:19:09;101498.63;;;18.26;100.00
69318;BME280;56457;52.190;4.440;2023-07-13T04:20:10;101491.53;;;18.25;100.00
69318;BME280;56457;52.190;4.440;2023-07-13T04:21:10;101507.53;;;18.24;100.00
69318;BME280;56457;52.190;4.440;2023-07-13T04:22:10;101501.28;;;18.26;100.00
69318;BME280;56457;52.190;4.440;2023-07-13T04:23:11;101498.63;;;18.26;100.00
69318;BME280;56457;52.190;4.440;2023-07-13T04:24:11;101497.66;;;18.29;100.00
69318;BME280;56457;52.190;4.440;2023-07-13T04:25:12;101497.66;;;18.29;100.00
69318;BME280;56457;52.190;4.440;2023-07-13T04:26:12;101497.66;;;18.29;100.00
69318;BME280;56457;52.190;4.440;2023-07-13T04:27:12;101496.91;;;18.24;100.00
69318;BME280;56457;52.190;4.440;2023-07-13T04:28:12;101500.38;;;18.27;100.00
69318;BME280;56457;52.190;4.440;2023-07-13T04:29:13;101495.78;;;18.33;100.00
69318;BME280;56457;52.190;4.440;2023-07-13T04:30:13;101495.75;;;18.34;100.00
69318;BME280;56457;52.190;4.440;2023-07-13T04:31:13;101502.66;;;18.40;100.00
69318;BME280;56457;52.190;4.440;2023-07-13T04:32:14;101503.78;;;18.31;100.00
69318;BME280;56457;52.190;4.440;2023-07-13T04:33:14;101500.38;;;18.27;100.00
69318;BME280;56457;52.190;4.440;2023-07-13T04:34:14;101505.69;;;18.27;100.00
69318;BME280;56457;52.190;4.440;2023-07-13T04:35:15;101504.66;;;18.32;100.00
69318;BME280;56457;52.190;4.440;2023-07-13T04:36:15;101505.50;;;18.34;100.00
69318;BME280;56457;52.190;4.440;2023-07-13T04:37:16;101506.38;;;18.34;100.00
69318;BME280;56457;52.190;4.440;2023-07-13T04:38:16;101504.81;;;18.27;100.00
69318;BME280;56457;52.190;4.440;2023-07-13T04:39:17;101509.28;;;18.25;100.00
69318;BME280;56457;52.190;4.440;2023-07-13T04:40:17;101507.47;;;18.27;100.00
69318;BME280;56457;52.190;4.440;2023-07-13T04:41:18;101500.19;;;18.34;100.00
69318;BME280;56457;52.190;4.440;2023-07-13T04:42:18;101508.09;;;18.35;100.00
69318;BME280;56457;52.190;4.440;2023-07-13T04:43:19;101509.88;;;18.35;100.00
69318;BME280;56457;52.190;4.440;2023-07-13T04:44:19;101510.63;;;18.40;100.00
69318;BME280;56457;52.190;4.440;2023-07-13T04:45:19;101514.22;;;18.39;100.00
69318;BME280;56457;52.190;4.440;2023-07-13T04:46:19;101510.72;;;18.37;100.00
69318;BME280;56457;52.190;4.440;2023-07-13T04:47:20;101509.84;;;18.36;100.00
69318;BME280;56457;52.190;4.440;2023-07-13T04:48:20;101511.38;;;18.43;100.00
69318;BME280;56457;52.190;4.440;2023-07-13T04:49:21;101510.63;;;18.40;100.00
69318;BME280;56457;52.190;4.440;2023-07-13T04:50:21;101514.22;;;18.39;100.00
69318;BME280;56457;52.190;4.440;2023-07-13T04:51:23;101515.19;;;18.35;100.00
69318;BME280;56457;52.190;4.440;2023-07-13T04:52:23;101514.38;;;18.33;100.00
69318;BME280;56457;52.190;4.440;2023-07-13T04:53:24;101511.72;;;18.33;100.00
69318;BME280;56457;52.190;4.440;2023-07-13T04:54:24;101519.81;;;18.28;100.00
69318;BME280;56457;52.190;4.440;2023-07-13T04:55:24;101522.47;;;18.28;100.00
69318;BME280;56457;52.190;4.440;2023-07-13T04:56:25;101513.53;;;18.30;100.00
69318;BME280;56457;52.190;4.440;2023-07-13T04:57:25;101512.59;;;18.33;100.00
69318;BME280;56457;52.190;4.440;2023-07-13T04:58:26;101513.41;;;18.35;100.00
69318;BME280;56457;52.190;4.440;2023-07-13T04:59:27;101524.84;;;18.39;100.00
69318;BME280;56457;52.190;4.440;2023-07-13T05:00:27;101513.28;;;18.40;100.00
69318;BME280;56457;52.190;4.440;2023-07-13T05:01:27;101518.53;;;18.41;100.00
69318;BME280;56457;52.190;4.440;2023-07-13T05:02:28;101517.50;;;18.47;100.00
69318;BME280;56457;52.190;4.440;2023-07-13T05:03:28;101521.03;;;18.47;100.00
69318;BME280;56457;52.190;4.440;2023-07-13T05:04:28;101525.34;;;18.50;100.00
69318;BME280;56457;52.190;4.440;2023-07-13T05:05:29;101523.56;;;18.50;100.00
69318;BME280;56457;52.190;4.440;2023-07-13T05:06:29;101527.06;;;18.52;100.00
69318;BME280;56457;52.190;4.440;2023-07-13T05:07:30;101526.22;;;18.52;100.00
69318;BME280;56457;52.190;4.440;2023-07-13T05:08:32;101533.94;;;18.60;100.00
69318;BME280;56457;52.190;4.440;2023-07-13T05:09:33;101540.88;;;18.65;100.00
69318;BME280;56457;52.190;4.440;2023-07-13T05:10:33;101534.41;;;18.74;100.00
69318;BME280;56457;52.190;4.440;2023-07-13T05:11:34;101528.03;;;18.79;100.00
69318;BME280;56457;52.190;4.440;2023-07-13T05:12:34;101528.84;;;18.83;100.00
69318;BME280;56457;52.190;4.440;2023-07-13T05:13:34;101529.66;;;18.85;100.00
69318;BME280;56457;52.190;4.440;2023-07-13T05:14:34;101540.97;;;18.92;100.00